Time;durP1;ratioP1;P1;durP2;ratioP2;P2;SDS_P1;SDS_P2;PMS_P1;PMS_P2;Temp;Humidity;BMP_temperature;BMP_pressure;BME280_temperature;BME280_humidity;BME280_pressure;Samples;Min_cycle;Max_cycle;Signal;HPM_P1;HPM_P2
2022/09/06 00:01:24;;;;;;;1.55;1.38;;;;;;;29.99;40.64;101617.03;5050472;28;20039;-71
2022/09/06 00:03:50;;;;;;;2.33;1.17;;;;;;;29.94;40.24;101626.34;5047182;28;20034;-70
2022/09/06 00:06:18;;;;;;;1.98;1.27;;;;;;;28.85;40.85;101638.31;5068664;28;20036;-70
2022/09/06 00:08:45;;;;;;;1.52;1.25;;;;;;;29.05;41.43;101652.94;5041133;28;20036;-69
2022/09/06 00:11:11;;;;;;;1.70;1.60;;;;;;;28.67;41.90;101645.03;5050993;28;20387;-70
2022/09/06 00:13:37;;;;;;;4.00;1.60;;;;;;;27.81;43.33;101669.03;5051845;28;20043;-70
2022/09/06 00:16:18;;;;;;;2.13;1.50;;;;;;;27.30;45.21;101679.66;5053180;28;20119;-70
2022/09/06 00:18:44;;;;;;;1.20;1.10;;;;;;;27.97;43.49;101667.94;5060078;28;20032;-71
2022/09/06 00:21:22;;;;;;;2.38;1.30;;;;;;;27.80;43.28;101678.06;5030883;28;20028;-70
2022/09/06 00:23:48;;;;;;;1.13;1.00;;;;;;;27.73;44.73;101687.50;5071289;28;20032;-70
2022/09/06 00:26:14;;;;;;;1.95;1.40;;;;;;;27.84;43.96;101695.66;5053074;28;20036;-70
2022/09/06 00:28:40;;;;;;;1.25;1.10;;;;;;;27.68;43.68;101692.34;5052259;28;20486;-70
2022/09/06 00:31:16;;;;;;;3.15;1.42;;;;;;;28.41;43.21;101690.78;5051484;28;20020;-71
2022/09/06 00:33:42;;;;;;;2.20;1.80;;;;;;;27.17;46.04;101696.59;5036107;28;20021;-70
2022/09/06 00:36:10;;;;;;;1.73;1.42;;;;;;;28.29;43.85;101705.13;5070285;28;20029;-70
2022/09/06 00:38:36;;;;;;;2.25;1.83;;;;;;;27.51;45.67;101709.63;5070894;28;20032;-70
2022/09/06 00:41:03;;;;;;;3.70;1.80;;;;;;;28.20;43.96;101706.66;5045198;28;20032;-71
2022/09/06 00:43:29;;;;;;;2.53;2.10;;;;;;;27.54;45.61;101704.88;5073833;28;20075;-71
2022/09/06 00:45:55;;;;;;;7.38;2.40;;;;;;;27.13;46.79;101710.34;5074298;28;20131;-70
2022/09/06 00:48:21;;;;;;;3.15;2.30;;;;;;;27.61;45.16;101704.47;5068666;28;20119;-70
2022/09/06 00:50:48;;;;;;;2.53;1.92;;;;;;;27.10;46.11;101706.03;5071041;28;20024;-72
2022/09/06 00:53:15;;;;;;;4.38;2.80;;;;;;;27.96;44.61;101693.09;5067439;28;20128;-71
2022/09/06 00:55:41;;;;;;;2.40;2.10;;;;;;;29.13;41.89;101683.78;5055481;28;20074;-70
2022/09/06 00:58:08;;;;;;;6.05;3.67;;;;;;;29.76;43.47;101666.34;5073282;28;20082;-71
2022/09/06 01:00:33;;;;;;;3.10;2.80;;;;;;;30.11;42.83;101664.56;5073951;28;20040;-71
2022/09/06 01:02:58;;;;;;;3.58;2.85;;;;;;;30.18;42.67;101660.38;5070331;28;20112;-71
2022/09/06 01:05:53;;;;;;;4.55;2.58;;;;;;;30.10;42.99;101652.06;5073272;28;20541;-71
2022/09/06 01:08:52;;;;;;;3.45;2.55;;;;;;;30.45;41.38;101648.38;5032954;28;20083;-71
2022/09/06 01:11:37;;;;;;;5.13;3.15;;;;;;;30.26;42.00;101636.34;5071566;28;20074;-71
2022/09/06 01:14:21;;;;;;;2.90;2.70;;;;;;;30.26;41.58;101620.19;5073211;28;20028;-71
2022/09/06 01:17:13;;;;;;;3.67;2.90;;;;;;;29.95;40.50;101606.50;5054044;28;20041;-71
2022/09/06 01:19:59;;;;;;;4.70;3.13;;;;;;;30.03;40.50;101592.41;5035884;28;20040;-71
2022/09/06 01:23:14;;;;;;;3.10;2.80;;;;;;;29.02;41.65;101593.97;5053321;28;20047;-71
2022/09/06 01:26:04;;;;;;;4.95;3.40;;;;;;;29.04;41.97;101593.84;5052907;28;20028;-71
2022/09/06 01:28:36;;;;;;;3.80;2.78;;;;;;;28.65;42.56;101577.09;5066832;28;20113;-71
2022/09/06 01:31:07;;;;;;;3.58;3.08;;;;;;;29.41;40.60;101570.34;5070732;28;20055;-71
2022/09/06 01:33:33;;;;;;;4.28;3.08;;;;;;;29.34;40.72;101566.41;5055701;28;20572;-71
2022/09/06 01:36:07;;;;;;;3.03;2.70;;;;;;;29.22;41.47;101554.75;5063229;28;20139;-71
2022/09/06 01:38:34;;;;;;;5.28;3.30;;;;;;;29.31;41.02;101546.97;5065759;28;20051;-71
2022/09/06 01:40:59;;;;;;;3.75;3.17;;;;;;;29.14;41.37;101537.47;5056175;28;20066;-70
2022/09/06 01:43:34;;;;;;;6.00;4.10;;;;;;;28.79;41.95;101531.16;5053179;28;20110;-71
2022/09/06 01:46:08;;;;;;;5.25;3.63;;;;;;;29.02;41.16;101525.84;5057360;28;20052;-70
2022/09/06 01:48:48;;;;;;;5.57;3.17;;;;;;;28.59;42.52;101520.06;5067735;28;20545;-71
2022/09/06 01:51:47;;;;;;;6.68;4.60;;;;;;;28.85;42.95;101517.25;5039100;28;20434;-71
2022/09/06 01:54:44;;;;;;;4.10;3.35;;;;;;;28.83;42.62;101511.13;5072396;28;20024;-71
2022/09/06 01:57:37;;;;;;;4.78;3.80;;;;;;;29.31;41.02;101506.59;4982839;28;20032;-71
2022/09/06 02:00:09;;;;;;;7.80;4.65;;;;;;;29.07;42.50;101508.38;5034183;28;20051;-71
2022/09/06 02:02:53;;;;;;;7.00;4.72;;;;;;;29.46;41.39;101513.44;5054474;28;20159;-71
2022/09/06 02:05:47;;;;;;;5.28;4.50;;;;;;;29.69;40.94;101513.41;5042650;28;20041;-71
2022/09/06 02:08:22;;;;;;;6.30;4.90;;;;;;;29.28;42.04;101516.63;5032595;28;20064;-71
2022/09/06 02:10:59;;;;;;;7.97;4.45;;;;;;;29.04;41.93;101526.59;5052792;28;20025;-71
2022/09/06 02:13:30;;;;;;;7.80;4.95;;;;;;;28.86;41.72;101532.41;5069042;28;20059;-71
2022/09/06 02:16:03;;;;;;;6.20;4.78;;;;;;;29.04;41.73;101529.28;5071145;28;20070;-71
2022/09/06 02:18:35;;;;;;;5.85;4.53;;;;;;;29.24;41.84;101531.28;5071687;28;20031;-70
2022/09/06 02:21:01;;;;;;;6.32;5.28;;;;;;;29.20;41.60;101527.09;5051064;28;20035;-71
2022/09/06 02:23:32;;;;;;;7.43;5.55;;;;;;;28.50;43.17;101527.97;5070924;28;20472;-70
2022/09/06 02:26:19;;;;;;;6.28;5.10;;;;;;;28.51;42.27;101532.34;5059072;28;20481;-70
2022/09/06 02:28:44;;;;;;;5.50;4.95;;;;;;;29.37;41.35;101535.72;5068433;28;20485;-71
2022/09/06 02:31:25;;;;;;;7.03;6.03;;;;;;;28.39;42.76;101539.53;5049401;28;20051;-71
2022/09/06 02:33:50;;;;;;;6.25;5.65;;;;;;;29.39;41.49;101544.53;5051106;28;20428;-70
2022/09/06 02:36:17;;;;;;;11.65;6.15;;;;;;;29.14;41.94;101545.56;5052409;28;20033;-71
2022/09/06 02:38:44;;;;;;;7.30;6.55;;;;;;;29.26;41.24;101556.28;5052331;28;20099;-71
2022/09/06 02:41:12;;;;;;;10.07;7.20;;;;;;;29.22;41.92;101544.00;5052295;28;20040;-70
2022/09/06 02:43:40;;;;;;;11.48;6.97;;;;;;;29.38;42.03;101540.13;5060550;28;20029;-70
2022/09/06 02:46:05;;;;;;;8.68;6.38;;;;;;;29.32;41.25;101543.28;5069403;28;20045;-70
2022/09/06 02:48:31;;;;;;;7.72;6.68;;;;;;;29.67;40.87;101537.78;5039966;28;20508;-71
2022/09/06 02:50:56;;;;;;;10.35;7.05;;;;;;;29.75;40.63;101529.09;5052105;28;20063;-71
2022/09/06 02:53:21;;;;;;;7.65;5.90;;;;;;;29.83;40.18;101548.19;5033103;28;20025;-70
2022/09/06 02:55:47;;;;;;;8.98;6.30;;;;;;;30.22;39.92;101537.84;5033101;28;20020;-71
2022/09/06 02:58:13;;;;;;;7.35;6.30;;;;;;;29.87;40.69;101547.00;5068230;28;20400;-71
2022/09/06 03:00:38;;;;;;;6.88;5.82;;;;;;;29.86;41.18;101552.50;5036919;28;20056;-71
2022/09/06 03:03:04;;;;;;;9.20;6.35;;;;;;;29.70;41.28;101552.84;5071383;28;20415;-71
2022/09/06 03:05:30;;;;;;;13.20;7.05;;;;;;;29.88;40.42;101551.41;5070527;28;20050;-70
2022/09/06 03:07:56;;;;;;;7.75;6.40;;;;;;;29.69;41.21;101545.75;5052667;28;20043;-71
2022/09/06 03:10:22;;;;;;;7.45;6.65;;;;;;;29.40;41.18;101551.63;5036876;28;20112;-71
2022/09/06 03:12:48;;;;;;;9.43;6.97;;;;;;;29.89;40.52;101546.88;5068091;28;20098;-71
2022/09/06 03:15:14;;;;;;;7.80;6.30;;;;;;;28.88;41.88;101565.44;5062059;28;20475;-70
2022/09/06 03:17:41;;;;;;;6.38;5.72;;;;;;;29.68;40.94;101554.81;5070209;28;20024;-71
2022/09/06 03:20:10;;;;;;;9.73;6.60;;;;;;;29.26;40.92;101566.16;5069880;28;20030;-71
2022/09/06 03:22:39;;;;;;;11.43;6.88;;;;;;;29.61;40.90;101560.69;5070589;28;20033;-71
2022/09/06 03:25:06;;;;;;;11.35;6.20;;;;;;;29.58;40.71;101566.31;5047702;28;20025;-71
2022/09/06 03:27:32;;;;;;;10.18;6.85;;;;;;;29.59;40.73;101588.72;5051567;28;20561;-71
2022/09/06 03:29:57;;;;;;;9.15;7.28;;;;;;;29.25;40.62;101592.22;5035771;28;20548;-71
2022/09/06 03:32:23;;;;;;;9.98;7.80;;;;;;;29.44;41.06;101586.28;5051055;28;20028;-70
2022/09/06 03:34:48;;;;;;;8.35;6.45;;;;;;;29.49;40.46;101593.97;5053870;28;20461;-70
2022/09/06 03:37:13;;;;;;;9.90;6.82;;;;;;;29.53;40.03;101605.38;5052673;28;20020;-71
2022/09/06 03:39:39;;;;;;;6.75;5.82;;;;;;;29.31;40.44;101600.81;5053651;28;20020;-71
2022/09/06 03:42:05;;;;;;;7.53;6.25;;;;;;;29.58;40.19;101604.03;5066569;28;20108;-70
2022/09/06 03:44:30;;;;;;;7.13;6.00;;;;;;;29.69;40.64;101605.88;5050335;28;20029;-71
2022/09/06 03:46:55;;;;;;;8.00;6.30;;;;;;;29.59;40.58;101605.75;5052536;28;20047;-71
2022/09/06 03:49:20;;;;;;;7.25;6.07;;;;;;;29.45;40.13;101614.88;5091719;28;20035;-70
2022/09/06 03:51:46;;;;;;;9.35;6.75;;;;;;;29.01;40.95;101619.16;5071491;28;20026;-71
2022/09/06 03:54:11;;;;;;;8.20;6.07;;;;;;;29.46;40.97;101621.16;5073532;28;20081;-71
2022/09/06 03:56:37;;;;;;;9.68;6.63;;;;;;;29.89;40.01;101596.22;5088836;28;20036;-71
2022/09/06 03:59:03;;;;;;;10.10;6.53;;;;;;;29.99;40.20;101598.16;5052088;28;20029;-70
2022/09/06 04:01:28;;;;;;;8.65;6.28;;;;;;;29.87;40.28;101587.41;5081916;28;20056;-71
2022/09/06 04:03:54;;;;;;;10.02;6.57;;;;;;;29.72;40.59;101591.31;5071287;28;20109;-71
2022/09/06 04:06:19;;;;;;;8.57;6.65;;;;;;;29.41;40.67;101591.88;5052144;28;20134;-71
2022/09/06 04:08:44;;;;;;;12.25;6.40;;;;;;;29.52;40.57;101593.72;5071154;28;20020;-71
2022/09/06 04:11:10;;;;;;;9.52;7.13;;;;;;;29.83;39.80;101591.31;5051403;28;20730;-71
2022/09/06 04:13:36;;;;;;;10.55;7.20;;;;;;;29.53;40.69;101606.22;5070629;28;20025;-71
2022/09/06 04:16:03;;;;;;;7.57;6.78;;;;;;;29.48;41.07;101605.72;5054175;28;20028;-71
2022/09/06 04:18:29;;;;;;;8.50;7.07;;;;;;;29.79;40.41;101603.31;5090561;28;20535;-70
2022/09/06 04:20:55;;;;;;;7.70;6.72;;;;;;;29.97;39.69;101606.38;5091909;28;20046;-70
2022/09/06 04:23:22;;;;;;;7.10;6.25;;;;;;;29.90;40.73;101603.31;5090427;28;20553;-71
2022/09/06 04:25:50;;;;;;;8.50;6.90;;;;;;;29.99;40.71;101611.66;5082252;28;20025;-71
2022/09/06 04:28:17;;;;;;;8.82;6.53;;;;;;;30.02;40.21;101628.44;5074119;28;20322;-71
2022/09/06 04:30:43;;;;;;;9.60;7.57;;;;;;;30.16;39.81;101624.63;5068061;28;20031;-71
2022/09/06 04:33:09;;;;;;;9.88;7.28;;;;;;;30.20;39.78;101625.22;5093682;28;20446;-71
2022/09/06 04:35:34;;;;;;;10.00;7.80;;;;;;;30.33;39.37;101619.69;5075682;28;20028;-71
2022/09/06 04:38:01;;;;;;;9.80;7.72;;;;;;;29.86;39.46;101623.41;5091024;28;20028;-70
2022/09/06 04:40:26;;;;;;;8.43;7.15;;;;;;;30.22;39.69;101621.41;5071163;28;20099;-71
2022/09/06 04:42:51;;;;;;;8.50;6.35;;;;;;;30.07;40.38;101614.59;5082734;28;20116;-70
2022/09/06 04:45:17;;;;;;;13.27;7.25;;;;;;;30.09;39.96;101618.88;5070465;28;20028;-71
2022/09/06 04:47:42;;;;;;;7.90;5.97;;;;;;;30.22;39.42;101613.31;5056604;28;20401;-71
2022/09/06 04:50:08;;;;;;;7.38;5.95;;;;;;;30.51;39.14;101610.09;5056516;28;20025;-70
2022/09/06 04:52:33;;;;;;;10.90;6.30;;;;;;;30.58;38.85;101614.03;5059118;28;20035;-71
2022/09/06 04:54:59;;;;;;;7.70;6.22;;;;;;;30.42;39.83;101618.94;5073772;28;20395;-71
2022/09/06 04:57:24;;;;;;;9.38;6.35;;;;;;;29.86;40.83;101633.34;5053794;28;20056;-71
2022/09/06 04:59:49;;;;;;;10.23;6.65;;;;;;;30.02;39.74;101627.56;5048748;28;20051;-71
2022/09/06 05:02:15;;;;;;;9.30;6.18;;;;;;;30.28;39.51;101606.56;5034923;28;20110;-71
2022/09/06 05:04:40;;;;;;;8.02;6.07;;;;;;;30.05;39.50;101611.16;5074134;28;20039;-71
2022/09/06 05:07:07;;;;;;;7.45;5.93;;;;;;;29.83;40.38;101612.84;5073948;28;20036;-71
2022/09/06 05:09:33;;;;;;;9.55;6.32;;;;;;;29.53;40.42;101614.28;5072094;28;20036;-71
2022/09/06 05:11:59;;;;;;;8.32;6.65;;;;;;;29.20;41.45;101609.69;5065418;28;20028;-71
2022/09/06 05:14:26;;;;;;;8.25;7.13;;;;;;;29.57;41.35;101609.53;5042453;28;20025;-71
2022/09/06 05:16:52;;;;;;;8.98;7.13;;;;;;;29.68;40.91;101603.31;5059730;28;20035;-71
2022/09/06 05:19:18;;;;;;;9.27;7.07;;;;;;;29.50;40.77;101595.69;5071790;28;20025;-71
2022/09/06 05:21:44;;;;;;;9.35;7.55;;;;;;;29.40;41.55;101594.69;5046292;28;20031;-71
2022/09/06 05:24:10;;;;;;;7.95;6.45;;;;;;;29.56;41.25;101589.81;5057634;28;20078;-71
2022/09/06 05:26:35;;;;;;;8.55;7.18;;;;;;;29.39;41.79;101582.22;5057075;28;20046;-71
2022/09/06 05:29:00;;;;;;;9.82;7.15;;;;;;;29.43;41.53;101583.69;5047869;28;20063;-71
2022/09/06 05:31:29;;;;;;;9.13;6.90;;;;;;;29.62;40.55;101580.38;5058589;28;20031;-71
2022/09/06 05:33:56;;;;;;;9.73;7.20;;;;;;;29.39;41.72;101587.63;5038681;28;20040;-71
2022/09/06 05:36:22;;;;;;;9.07;7.28;;;;;;;29.46;41.07;101594.22;5056791;28;20032;-72
2022/09/06 05:38:49;;;;;;;9.10;7.53;;;;;;;29.51;41.11;101594.72;5067726;28;20109;-71
2022/09/06 05:41:15;;;;;;;9.05;7.20;;;;;;;29.68;40.84;101582.59;5073461;28;20028;-71
2022/09/06 05:43:40;;;;;;;8.23;6.70;;;;;;;29.91;39.58;101572.72;5054571;28;20020;-71
2022/09/06 05:46:05;;;;;;;11.98;8.02;;;;;;;29.88;40.51;101577.47;5063980;28;20043;-71
2022/09/06 05:48:31;;;;;;;10.30;7.95;;;;;;;30.10;40.17;101569.38;5074148;28;20413;-71
2022/09/06 05:51:05;;;;;;;9.25;8.30;;;;;;;29.65;40.59;101571.22;5074601;28;20245;-71
2022/09/06 05:53:43;;;;;;;15.45;8.80;;;;;;;29.82;39.85;101565.34;5075121;28;20020;-71
2022/09/06 05:56:10;;;;;;;11.15;8.40;;;;;;;29.90;40.29;101564.75;5093485;28;20051;-71
2022/09/06 05:58:35;;;;;;;13.18;9.32;;;;;;;29.59;40.85;101567.16;5092726;28;20099;-71
2022/09/06 06:01:12;;;;;;;13.55;9.25;;;;;;;29.25;41.15;101576.09;5074995;28;20112;-71
2022/09/06 06:03:37;;;;;;;13.75;8.85;;;;;;;28.52;42.47;101566.34;5093043;28;20050;-71
2022/09/06 06:06:03;;;;;;;11.13;7.65;;;;;;;29.42;41.30;101571.22;5092573;28;20019;-71
2022/09/06 06:08:28;;;;;;;9.73;7.80;;;;;;;29.46;40.94;101578.06;5093323;28;20027;-71
2022/09/06 06:10:58;;;;;;;13.85;9.02;;;;;;;28.78;42.50;101572.47;5074916;28;20024;-71
2022/09/06 06:13:24;;;;;;;11.88;10.00;;;;;;;29.17;41.38;101569.53;5073975;28;20681;-71
2022/09/06 06:15:49;;;;;;;15.73;8.82;;;;;;;29.39;41.23;101571.47;5093062;28;20103;-71
2022/09/06 06:18:15;;;;;;;12.52;9.45;;;;;;;29.53;40.97;101565.81;5092805;28;20055;-71
2022/09/06 06:20:40;;;;;;;14.30;10.18;;;;;;;29.65;40.23;101557.75;5074038;28;20517;-71
2022/09/06 06:23:05;;;;;;;13.27;9.55;;;;;;;29.11;42.00;101562.78;5074621;28;20031;-71
2022/09/06 06:25:31;;;;;;;14.27;9.75;;;;;;;29.43;41.07;101562.16;5092719;28;20107;-71
2022/09/06 06:27:56;;;;;;;12.93;8.43;;;;;;;29.21;41.44;101552.16;5073809;28;20012;-71
2022/09/06 06:30:21;;;;;;;11.82;9.70;;;;;;;29.17;42.34;101556.06;5074572;28;20380;-71
2022/09/06 06:32:47;;;;;;;12.98;8.07;;;;;;;29.33;41.64;101550.38;5092564;28;20106;-71
2022/09/06 06:35:12;;;;;;;11.60;7.93;;;;;;;29.66;40.79;101548.69;5073812;28;20028;-71
2022/09/06 06:37:37;;;;;;;12.32;7.85;;;;;;;29.72;40.83;101543.66;5092659;28;20024;-71
2022/09/06 06:40:04;;;;;;;12.38;9.40;;;;;;;29.54;40.99;101537.94;5091098;28;20028;-71
2022/09/06 06:42:29;;;;;;;11.60;8.88;;;;;;;29.29;41.77;101544.38;5092451;28;20020;-71
2022/09/06 06:44:55;;;;;;;9.27;7.80;;;;;;;29.59;41.35;101546.50;5092475;28;20510;-71
2022/09/06 06:47:20;;;;;;;13.07;9.98;;;;;;;29.93;41.12;101543.78;5073443;28;20515;-71
2022/09/06 06:49:47;;;;;;;13.77;9.65;;;;;;;29.50;41.60;101540.97;5074129;28;20104;-71
2022/09/06 06:52:12;;;;;;;18.42;10.32;;;;;;;29.61;41.77;101539.16;5092246;28;20085;-71
2022/09/06 06:54:38;;;;;;;15.43;10.43;;;;;;;29.01;43.30;101548.34;5091535;28;20779;-71
2022/09/06 06:57:03;;;;;;;12.05;10.15;;;;;;;29.59;41.84;101551.88;5092237;28;20024;-71
2022/09/06 06:59:29;;;;;;;15.55;9.45;;;;;;;28.59;43.94;101555.03;5074005;28;20024;-73
2022/09/06 07:01:55;;;;;;;14.00;9.00;;;;;;;29.66;41.65;101554.06;5091467;28;20027;-71
2022/09/06 07:04:20;;;;;;;16.08;9.95;;;;;;;29.55;42.21;101545.03;5091913;28;20522;-71
2022/09/06 07:06:52;;;;;;;13.45;10.00;;;;;;;29.82;41.02;101551.88;5092222;28;20020;-71
2022/09/06 07:09:18;;;;;;;12.90;10.07;;;;;;;30.08;41.47;101554.31;5091505;28;20028;-71
2022/09/06 07:11:45;;;;;;;14.52;9.88;;;;;;;28.86;44.18;101548.53;5092117;28;20028;-71
2022/09/06 07:14:10;;;;;;;13.07;9.77;;;;;;;30.10;41.44;101549.63;5092037;28;20028;-71
2022/09/06 07:16:35;;;;;;;19.08;10.65;;;;;;;29.35;43.23;101549.28;5091055;28;20541;-71
2022/09/06 07:19:01;;;;;;;13.98;10.32;;;;;;;29.77;42.48;101544.16;5091918;28;20059;-71
2022/09/06 07:21:26;;;;;;;13.73;10.90;;;;;;;30.07;42.27;101533.72;5091935;28;20059;-71
2022/09/06 07:23:53;;;;;;;15.48;11.13;;;;;;;30.87;40.72;101537.00;5072898;28;20028;-70
2022/09/06 07:26:23;;;;;;;11.02;9.25;;;;;;;30.42;41.53;101544.28;5091899;28;20050;-70
2022/09/06 07:28:53;;;;;;;12.73;8.48;;;;;;;31.07;39.70;101532.63;5091910;28;20038;-71
2022/09/06 07:31:18;;;;;;;11.10;8.77;;;;;;;31.35;38.98;101536.44;5091049;28;20024;-70
2022/09/06 07:33:43;;;;;;;10.55;7.20;;;;;;;33.13;36.00;101533.91;5073347;28;20024;-70
2022/09/06 07:36:10;;;;;;;9.35;7.22;;;;;;;34.02;33.85;101523.56;5091258;28;20027;-70
2022/09/06 07:38:35;;;;;;;7.95;5.93;;;;;;;35.69;31.80;101522.81;5091713;28;20089;-70
2022/09/06 07:41:04;;;;;;;10.85;6.60;;;;;;;36.39;29.88;101529.81;5091631;28;20032;-70
2022/09/06 07:43:29;;;;;;;7.50;6.40;;;;;;;35.85;30.68;101522.88;5072612;28;20031;-70
2022/09/06 07:46:01;;;;;;;6.80;6.10;;;;;;;36.87;28.56;101533.56;5073366;28;20052;-70
2022/09/06 07:48:29;;;;;;;8.80;6.60;;;;;;;36.34;29.63;101528.44;5091766;28;20080;-70
2022/09/06 07:50:55;;;;;;;7.75;6.18;;;;;;;38.00;27.78;101527.06;5091929;28;20102;-70
2022/09/06 07:53:20;;;;;;;10.77;6.65;;;;;;;36.92;28.95;101531.16;5095747;28;20111;-71
2022/09/06 07:55:46;;;;;;;8.25;5.97;;;;;;;37.05;28.63;101537.94;5095596;28;20031;-70
2022/09/06 07:58:11;;;;;;;7.25;6.30;;;;;;;37.23;29.03;101533.13;5094891;28;20500;-70
2022/09/06 08:00:39;;;;;;;12.38;5.70;;;;;;;36.59;30.30;101525.72;5095713;28;20074;-70
2022/09/06 08:03:05;;;;;;;6.68;5.97;;;;;;;37.01;29.58;101530.13;5095592;28;20036;-70
2022/09/06 08:05:30;;;;;;;9.55;6.20;;;;;;;35.87;30.36;101523.56;5076525;28;20093;-70
2022/09/06 08:07:55;;;;;;;7.28;5.78;;;;;;;35.97;30.82;101521.56;5077263;28;20028;-70
2022/09/06 08:10:21;;;;;;;7.13;5.65;;;;;;;35.48;31.07;101524.09;5095400;28;20455;-70
2022/09/06 08:12:46;;;;;;;6.75;5.45;;;;;;;35.96;30.37;101530.72;5094770;28;20589;-70
2022/09/06 08:15:11;;;;;;;6.13;5.53;;;;;;;36.85;29.64;101541.06;5077158;28;20028;-71
2022/09/06 08:17:36;;;;;;;7.07;5.85;;;;;;;36.37;30.48;101537.28;5095707;28;20032;-71
2022/09/06 08:20:03;;;;;;;7.50;5.65;;;;;;;35.30;31.84;101546.72;5094457;28;20070;-71
2022/09/06 08:22:32;;;;;;;9.10;5.38;;;;;;;34.55;32.64;101530.88;5095084;28;20054;-71
2022/09/06 08:24:58;;;;;;;7.15;5.70;;;;;;;35.52;31.56;101532.75;5095012;28;20055;-71
2022/09/06 08:27:24;;;;;;;8.05;5.55;;;;;;;35.59;31.87;101537.38;5094443;28;20103;-70
2022/09/06 08:29:49;;;;;;;8.40;5.32;;;;;;;33.63;34.39;101544.44;5095174;28;20048;-70
2022/09/06 08:32:15;;;;;;;9.40;6.05;;;;;;;33.97;34.01;101548.44;5095184;28;20031;-70
2022/09/06 08:34:41;;;;;;;7.43;6.10;;;;;;;34.09;33.37;101538.22;5075913;28;20020;-70
2022/09/06 08:37:06;;;;;;;12.00;6.20;;;;;;;33.56;33.75;101543.31;5094699;28;20016;-70
2022/09/06 08:39:31;;;;;;;6.85;5.38;;;;;;;33.90;34.09;101537.34;5094368;28;20085;-70
2022/09/06 08:42:02;;;;;;;13.07;6.13;;;;;;;34.63;32.41;101541.81;5076546;28;20040;-71
2022/09/06 08:44:36;;;;;;;10.55;5.95;;;;;;;32.59;35.16;101541.63;5095092;28;20031;-71
2022/09/06 08:47:06;;;;;;;9.20;5.60;;;;;;;34.94;32.28;101538.69;5075477;28;20105;-70
2022/09/06 08:49:36;;;;;;;6.93;5.18;;;;;;;35.32;31.57;101533.88;5076360;28;20020;-71
2022/09/06 08:52:09;;;;;;;10.80;5.53;;;;;;;35.43;30.82;101537.28;5094615;28;20047;-70
2022/09/06 08:55:00;;;;;;;9.65;5.70;;;;;;;34.54;33.78;101539.19;5075503;28;20422;-71
2022/09/06 08:58:09;;;;;;;6.40;5.15;;;;;;;34.19;32.60;101530.84;5094181;28;20028;-70
2022/09/06 09:00:37;;;;;;;8.10;4.32;;;;;;;33.18;34.03;101531.63;4991828;28;20049;-71
2022/09/06 09:03:13;;;;;;;5.55;4.68;;;;;;;34.87;31.95;101529.47;4991904;28;20104;-71
2022/09/06 09:05:40;;;;;;;9.88;4.60;;;;;;;34.22;32.41;101527.81;5051818;28;20044;-71
2022/09/06 09:08:21;;;;;;;6.53;4.80;;;;;;;34.54;32.23;101534.63;5093317;28;20507;-70
2022/09/06 09:11:05;;;;;;;6.03;4.88;;;;;;;34.29;31.90;101534.41;5094447;28;20035;-71
2022/09/06 09:13:39;;;;;;;5.32;4.82;;;;;;;33.42;33.04;101541.13;5094232;28;20107;-71
2022/09/06 09:16:05;;;;;;;7.63;5.63;;;;;;;33.41;33.63;101542.09;5075080;28;20031;-71
2022/09/06 09:18:38;;;;;;;7.20;5.43;;;;;;;32.78;34.31;101540.78;5094052;28;20028;-71
2022/09/06 09:21:04;;;;;;;9.95;5.40;;;;;;;34.04;32.92;101548.66;5093955;28;20076;-71
2022/09/06 09:23:29;;;;;;;8.98;4.97;;;;;;;33.86;33.35;101546.78;5074898;28;20028;-71
2022/09/06 09:26:01;;;;;;;8.25;5.32;;;;;;;32.51;35.71;101555.00;5075673;28;20032;-71
2022/09/06 09:28:27;;;;;;;5.93;4.97;;;;;;;33.89;32.96;101546.47;5075939;28;20027;-71
2022/09/06 09:30:54;;;;;;;9.00;5.32;;;;;;;33.46;34.21;101556.06;5093034;28;20036;-71
2022/09/06 09:33:35;;;;;;;8.63;5.68;;;;;;;33.11;34.89;101544.00;5075603;28;20453;-71
2022/09/06 09:36:06;;;;;;;6.43;5.35;;;;;;;33.73;33.91;101541.69;5093204;28;20074;-70
2022/09/06 09:38:45;;;;;;;8.85;5.38;;;;;;;33.16;34.67;101539.03;5075686;28;20044;-71
2022/09/06 09:41:28;;;;;;;8.93;6.00;;;;;;;34.79;32.86;101542.97;5075476;28;20020;-71
2022/09/06 09:44:03;;;;;;;8.85;5.75;;;;;;;33.25;34.33;101549.00;5074776;28;20063;-71
2022/09/06 09:46:33;;;;;;;7.85;5.70;;;;;;;34.77;32.86;101550.41;5080929;28;20044;-71
2022/09/06 09:49:04;;;;;;;7.15;5.20;;;;;;;33.81;33.78;101551.78;5055293;28;20518;-71
2022/09/06 09:51:31;;;;;;;7.55;6.30;;;;;;;33.52;34.21;101555.47;5072723;28;20028;-70
2022/09/06 09:54:03;;;;;;;8.88;5.28;;;;;;;33.39;34.24;101549.53;5073193;28;20107;-70
2022/09/06 09:56:44;;;;;;;8.77;5.30;;;;;;;34.28;33.47;101554.34;5073186;28;20077;-71
2022/09/06 09:59:28;;;;;;;12.90;5.78;;;;;;;32.89;35.54;101553.31;5072494;28;20031;-71
2022/09/06 10:01:58;;;;;;;9.52;5.38;;;;;;;34.60;33.15;101554.84;5073075;28;20401;-71
2022/09/06 10:04:31;;;;;;;9.90;6.10;;;;;;;34.34;32.69;101536.63;5054090;28;20044;-71
2022/09/06 10:07:30;;;;;;;8.27;5.30;;;;;;;34.34;32.26;101538.50;5072869;28;20028;-71
2022/09/06 10:10:01;;;;;;;8.55;4.78;;;;;;;34.01;32.10;101543.56;5001642;28;20029;-70
2022/09/06 10:12:34;;;;;;;11.27;5.43;;;;;;;33.65;34.72;101550.56;5072077;28;20020;-71
2022/09/06 10:15:00;;;;;;;6.88;6.13;;;;;;;32.45;36.50;101553.75;5053631;28;20028;-70
2022/09/06 10:17:25;;;;;;;9.18;7.10;;;;;;;33.67;34.61;101557.69;5054897;28;20472;-72
2022/09/06 10:19:52;;;;;;;10.88;5.93;;;;;;;33.28;34.83;101556.00;5071893;28;20036;-71
2022/09/06 10:22:26;;;;;;;7.00;5.80;;;;;;;32.47;36.06;101559.88;5072617;28;20028;-71
2022/09/06 10:25:10;;;;;;;7.43;5.32;;;;;;;33.70;34.11;101563.66;5072597;28;20021;-70
2022/09/06 10:27:59;;;;;;;8.20;5.65;;;;;;;32.35;36.16;101553.72;5072168;28;20052;-70
2022/09/06 10:30:28;;;;;;;7.93;6.22;;;;;;;33.00;35.55;101561.28;5058400;28;20493;-70
2022/09/06 10:33:23;;;;;;;10.30;5.70;;;;;;;33.66;34.49;101570.38;5071672;28;20039;-70
2022/09/06 10:35:49;;;;;;;9.57;5.18;;;;;;;34.50;33.20;101557.66;5021011;28;20059;-71
2022/09/06 10:38:14;;;;;;;9.73;6.43;;;;;;;34.21;33.54;101560.53;5072437;28;20542;-71
2022/09/06 10:40:55;;;;;;;12.55;6.38;;;;;;;33.20;35.00;101569.38;5071511;28;20024;-71
2022/09/06 10:43:20;;;;;;;14.40;6.18;;;;;;;31.61;37.93;101566.63;5072380;28;20055;-71
2022/09/06 10:46:03;;;;;;;9.98;5.97;;;;;;;33.84;34.80;101559.63;5060434;28;20499;-70
2022/09/06 10:48:30;;;;;;;9.65;5.40;;;;;;;33.88;34.43;101571.00;5092498;28;20493;-71
2022/09/06 10:51:19;;;;;;;7.28;5.65;;;;;;;32.87;36.25;101577.84;5073950;28;20517;-71
2022/09/06 10:53:48;;;;;;;11.10;5.30;;;;;;;33.34;35.11;101570.78;5073568;28;20028;-71
2022/09/06 10:56:27;;;;;;;7.93;5.47;;;;;;;33.17;35.81;101578.66;5092264;28;20074;-70
2022/09/06 10:58:56;;;;;;;9.25;5.75;;;;;;;32.97;36.18;101581.41;5074125;28;20131;-71
2022/09/06 11:01:36;;;;;;;7.88;5.43;;;;;;;33.38;35.66;101586.59;5091190;28;20028;-71
2022/09/06 11:04:05;;;;;;;10.65;6.47;;;;;;;32.85;35.79;101574.44;5074055;28;20490;-70
2022/09/06 11:06:35;;;;;;;10.20;6.95;;;;;;;33.02;36.07;101577.41;5092038;28;20064;-71
2022/09/06 11:09:28;;;;;;;10.60;7.32;;;;;;;33.51;36.08;101580.88;5091568;28;20077;-70
2022/09/06 11:12:07;;;;;;;11.75;7.57;;;;;;;33.22;35.65;101581.78;5073980;28;20017;-71
2022/09/06 11:14:33;;;;;;;10.60;8.40;;;;;;;32.23;37.58;101585.47;5091349;28;20686;-70
2022/09/06 11:17:16;;;;;;;12.38;7.65;;;;;;;33.71;35.41;101575.34;5092090;28;20028;-71
2022/09/06 11:19:49;;;;;;;9.55;8.05;;;;;;;33.88;34.18;101569.19;5092428;28;20024;-70
2022/09/06 11:22:38;;;;;;;12.57;7.20;;;;;;;33.44;35.28;101585.16;5090959;28;20093;-70
2022/09/06 11:25:34;;;;;;;15.70;7.40;;;;;;;34.27;33.65;101581.63;5073674;28;20078;-71
2022/09/06 11:28:02;;;;;;;10.52;7.40;;;;;;;35.04;32.02;101578.47;5073723;28;20031;-71
2022/09/06 11:30:29;;;;;;;10.40;7.00;;;;;;;35.77;31.83;101577.19;5091177;28;20024;-70
2022/09/06 11:33:27;;;;;;;9.90;6.22;;;;;;;33.13;34.80;101588.06;5073735;28;20111;-69
2022/09/06 11:36:13;;;;;;;8.57;6.47;;;;;;;35.23;32.17;101580.97;5091027;28;20077;-71